sensor_id;sensor_type;location;lat;lon;timestamp;P1;durP1;ratioP1;P2;durP2;ratioP2
4424;SDS011;2225;53.568;13.266;2022-09-01T00:02:35;5.40;;;1.87;;
4424;SDS011;2225;53.568;13.266;2022-09-01T00:05:02;5.63;;;2.10;;
4424;SDS011;2225;53.568;13.266;2022-09-01T00:07:30;4.30;;;1.80;;
4424;SDS011;2225;53.568;13.266;2022-09-01T00:10:00;4.40;;;1.90;;
4424;SDS011;2225;53.568;13.266;2022-09-01T00:12:32;7.70;;;2.00;;
4424;SDS011;2225;53.568;13.266;2022-09-01T00:14:59;6.03;;;2.10;;
4424;SDS011;2225;53.568;13.266;2022-09-01T00:17:26;4.33;;;1.77;;
4424;SDS011;2225;53.568;13.266;2022-09-01T00:19:53;6.10;;;1.70;;
4424;SDS011;2225;53.568;13.266;2022-09-01T00:22:20;4.17;;;1.60;;
4424;SDS011;2225;53.568;13.266;2022-09-01T00:24:47;5.00;;;1.80;;
4424;SDS011;2225;53.568;13.266;2022-09-01T00:27:14;6.20;;;1.90;;
4424;SDS011;2225;53.568;13.266;2022-09-01T00:29:43;5.47;;;1.80;;
4424;SDS011;2225;53.568;13.266;2022-09-01T00:32:10;5.50;;;1.87;;
4424;SDS011;2225;53.568;13.266;2022-09-01T00:34:37;5.17;;;1.80;;
4424;SDS011;2225;53.568;13.266;2022-09-01T00:37:05;4.50;;;1.47;;
4424;SDS011;2225;53.568;13.266;2022-09-01T00:39:33;6.60;;;2.30;;
4424;SDS011;2225;53.568;13.266;2022-09-01T00:42:00;4.67;;;2.03;;
4424;SDS011;2225;53.568;13.266;2022-09-01T00:44:27;4.87;;;2.13;;
4424;SDS011;2225;53.568;13.266;2022-09-01T00:46:56;6.80;;;1.90;;
4424;SDS011;2225;53.568;13.266;2022-09-01T00:52:09;4.30;;;1.77;;
4424;SDS011;2225;53.568;13.266;2022-09-01T00:54:48;9.30;;;2.23;;
4424;SDS011;2225;53.568;13.266;2022-09-01T00:57:20;9.63;;;2.17;;
4424;SDS011;2225;53.568;13.266;2022-09-01T00:59:49;5.17;;;1.93;;
4424;SDS011;2225;53.568;13.266;2022-09-01T01:02:24;6.40;;;1.90;;
4424;SDS011;2225;53.568;13.266;2022-09-01T01:04:51;6.50;;;2.13;;
4424;SDS011;2225;53.568;13.266;2022-09-01T01:07:21;5.40;;;2.20;;
4424;SDS011;2225;53.568;13.266;2022-09-01T01:09:49;6.83;;;2.03;;
4424;SDS011;2225;53.568;13.266;2022-09-01T01:12:16;5.60;;;2.47;;
4424;SDS011;2225;53.568;13.266;2022-09-01T01:14:44;7.10;;;2.47;;
4424;SDS011;2225;53.568;13.266;2022-09-01T01:17:16;4.80;;;2.07;;
4424;SDS011;2225;53.568;13.266;2022-09-01T01:19:47;11.70;;;2.07;;
4424;SDS011;2225;53.568;13.266;2022-09-01T01:25:34;6.00;;;2.33;;
4424;SDS011;2225;53.568;13.266;2022-09-01T01:28:31;7.83;;;2.30;;
4424;SDS011;2225;53.568;13.266;2022-09-01T01:31:03;5.23;;;2.10;;
4424;SDS011;2225;53.568;13.266;2022-09-01T01:33:42;4.43;;;1.93;;
4424;SDS011;2225;53.568;13.266;2022-09-01T01:39:07;5.30;;;2.10;;
4424;SDS011;2225;53.568;13.266;2022-09-01T01:41:40;7.57;;;2.43;;
4424;SDS011;2225;53.568;13.266;2022-09-01T01:44:16;5.70;;;2.20;;
4424;SDS011;2225;53.568;13.266;2022-09-01T01:46:46;8.33;;;2.47;;
4424;SDS011;2225;53.568;13.266;2022-09-01T01:49:17;5.67;;;2.60;;
4424;SDS011;2225;53.568;13.266;2022-09-01T01:51:49;4.47;;;1.80;;
4424;SDS011;2225;53.568;13.266;2022-09-01T01:54:23;5.93;;;2.47;;
4424;SDS011;2225;53.568;13.266;2022-09-01T01:56:59;5.77;;;2.00;;
4424;SDS011;2225;53.568;13.266;2022-09-01T01:59:29;8.70;;;2.20;;
4424;SDS011;2225;53.568;13.266;2022-09-01T02:01:58;6.60;;;1.97;;
4424;SDS011;2225;53.568;13.266;2022-09-01T02:04:29;5.67;;;2.17;;
4424;SDS011;2225;53.568;13.266;2022-09-01T02:07:07;10.80;;;2.47;;
4424;SDS011;2225;53.568;13.266;2022-09-01T02:09:39;5.30;;;2.30;;
4424;SDS011;2225;53.568;13.266;2022-09-01T02:12:09;4.17;;;1.70;;
4424;SDS011;2225;53.568;13.266;2022-09-01T02:14:41;6.03;;;2.20;;
4424;SDS011;2225;53.568;13.266;2022-09-01T02:17:08;5.00;;;2.00;;
4424;SDS011;2225;53.568;13.266;2022-09-01T02:19:36;4.83;;;2.10;;
4424;SDS011;2225;53.568;13.266;2022-09-01T02:22:05;5.20;;;2.17;;
4424;SDS011;2225;53.568;13.266;2022-09-01T02:24:36;6.67;;;2.27;;
4424;SDS011;2225;53.568;13.266;2022-09-01T02:27:03;5.30;;;2.50;;
4424;SDS011;2225;53.568;13.266;2022-09-01T02:29:33;4.63;;;1.83;;
4424;SDS011;2225;53.568;13.266;2022-09-01T02:32:06;6.07;;;2.63;;
4424;SDS011;2225;53.568;13.266;2022-09-01T02:34:33;4.70;;;2.23;;
4424;SDS011;2225;53.568;13.266;2022-09-01T02:37:00;5.60;;;2.03;;
4424;SDS011;2225;53.568;13.266;2022-09-01T02:39:28;5.00;;;2.00;;
4424;SDS011;2225;53.568;13.266;2022-09-01T02:42:00;5.20;;;1.90;;
4424;SDS011;2225;53.568;13.266;2022-09-01T02:44:28;4.73;;;2.10;;
4424;SDS011;2225;53.568;13.266;2022-09-01T02:46:57;11.20;;;2.67;;
4424;SDS011;2225;53.568;13.266;2022-09-01T02:49:25;7.20;;;2.40;;
4424;SDS011;2225;53.568;13.266;2022-09-01T02:51:56;6.80;;;2.50;;
4424;SDS011;2225;53.568;13.266;2022-09-01T02:54:28;5.73;;;2.10;;
4424;SDS011;2225;53.568;13.266;2022-09-01T02:56:57;5.77;;;2.37;;
4424;SDS011;2225;53.568;13.266;2022-09-01T02:59:25;5.00;;;1.80;;
4424;SDS011;2225;53.568;13.266;2022-09-01T03:01:58;4.97;;;1.77;;
4424;SDS011;2225;53.568;13.266;2022-09-01T03:04:25;6.90;;;1.97;;
4424;SDS011;2225;53.568;13.266;2022-09-01T03:06:52;5.93;;;2.53;;
4424;SDS011;2225;53.568;13.266;2022-09-01T03:09:20;4.53;;;2.00;;
4424;SDS011;2225;53.568;13.266;2022-09-01T03:11:49;4.53;;;2.20;;
4424;SDS011;2225;53.568;13.266;2022-09-01T03:14:18;6.83;;;2.10;;
4424;SDS011;2225;53.568;13.266;2022-09-01T03:16:46;13.00;;;2.57;;
4424;SDS011;2225;53.568;13.266;2022-09-01T03:19:14;6.67;;;2.00;;
4424;SDS011;2225;53.568;13.266;2022-09-01T03:21:42;5.17;;;2.00;;
4424;SDS011;2225;53.568;13.266;2022-09-01T03:24:15;5.33;;;2.67;;
4424;SDS011;2225;53.568;13.266;2022-09-01T03:26:45;5.73;;;2.50;;
4424;SDS011;2225;53.568;13.266;2022-09-01T03:29:16;6.07;;;2.60;;
4424;SDS011;2225;53.568;13.266;2022-09-01T03:31:44;11.73;;;3.67;;
4424;SDS011;2225;53.568;13.266;2022-09-01T03:34:12;5.63;;;2.50;;
4424;SDS011;2225;53.568;13.266;2022-09-01T03:36:48;6.03;;;2.80;;
4424;SDS011;2225;53.568;13.266;2022-09-01T03:39:22;8.13;;;2.07;;
4424;SDS011;2225;53.568;13.266;2022-09-01T03:41:49;6.00;;;2.20;;
4424;SDS011;2225;53.568;13.266;2022-09-01T03:44:18;6.10;;;2.40;;
4424;SDS011;2225;53.568;13.266;2022-09-01T03:46:45;10.70;;;2.10;;
4424;SDS011;2225;53.568;13.266;2022-09-01T03:49:12;7.07;;;2.00;;
4424;SDS011;2225;53.568;13.266;2022-09-01T03:51:42;4.70;;;1.67;;
4424;SDS011;2225;53.568;13.266;2022-09-01T03:54:10;5.17;;;2.00;;
4424;SDS011;2225;53.568;13.266;2022-09-01T03:56:38;4.90;;;2.07;;
4424;SDS011;2225;53.568;13.266;2022-09-01T03:59:10;6.53;;;2.10;;
4424;SDS011;2225;53.568;13.266;2022-09-01T04:01:44;6.20;;;2.03;;
4424;SDS011;2225;53.568;13.266;2022-09-01T04:04:13;7.40;;;2.27;;
4424;SDS011;2225;53.568;13.266;2022-09-01T04:06:40;5.80;;;2.40;;
4424;SDS011;2225;53.568;13.266;2022-09-01T04:09:10;5.83;;;2.37;;
4424;SDS011;2225;53.568;13.266;2022-09-01T04:11:40;6.57;;;2.40;;
4424;SDS011;2225;53.568;13.266;2022-09-01T04:14:13;4.03;;;1.90;;
4424;SDS011;2225;53.568;13.266;2022-09-01T04:16:42;6.30;;;2.60;;
4424;SDS011;2225;53.568;13.266;2022-09-01T04:19:28;5.07;;;2.27;;
4424;SDS011;2225;53.568;13.266;2022-09-01T04:21:58;6.30;;;2.10;;
4424;SDS011;2225;53.568;13.266;2022-09-01T04:24:33;5.07;;;2.30;;
4424;SDS011;2225;53.568;13.266;2022-09-01T04:27:01;15.03;;;3.03;;
4424;SDS011;2225;53.568;13.266;2022-09-01T04:29:29;8.60;;;2.33;;
4424;SDS011;2225;53.568;13.266;2022-09-01T04:32:00;7.90;;;2.70;;
4424;SDS011;2225;53.568;13.266;2022-09-01T04:34:38;14.37;;;2.33;;
4424;SDS011;2225;53.568;13.266;2022-09-01T04:37:07;7.10;;;2.00;;
4424;SDS011;2225;53.568;13.266;2022-09-01T04:39:38;11.70;;;2.67;;
4424;SDS011;2225;53.568;13.266;2022-09-01T04:42:18;8.40;;;2.40;;
4424;SDS011;2225;53.568;13.266;2022-09-01T04:44:50;8.77;;;2.40;;
4424;SDS011;2225;53.568;13.266;2022-09-01T04:47:20;13.97;;;2.30;;
4424;SDS011;2225;53.568;13.266;2022-09-01T04:50:03;6.87;;;2.17;;
4424;SDS011;2225;53.568;13.266;2022-09-01T04:52:42;9.97;;;2.30;;
4424;SDS011;2225;53.568;13.266;2022-09-01T04:55:23;6.43;;;2.20;;
4424;SDS011;2225;53.568;13.266;2022-09-01T04:57:52;9.80;;;2.70;;
4424;SDS011;2225;53.568;13.266;2022-09-01T05:00:20;6.50;;;2.50;;
4424;SDS011;2225;53.568;13.266;2022-09-01T05:02:52;9.90;;;3.87;;
4424;SDS011;2225;53.568;13.266;2022-09-01T05:05:42;10.03;;;2.50;;
4424;SDS011;2225;53.568;13.266;2022-09-01T05:08:15;9.73;;;3.23;;
4424;SDS011;2225;53.568;13.266;2022-09-01T05:10:50;7.40;;;2.80;;
4424;SDS011;2225;53.568;13.266;2022-09-01T05:13:29;6.40;;;2.80;;
4424;SDS011;2225;53.568;13.266;2022-09-01T05:16:03;9.47;;;2.73;;
4424;SDS011;2225;53.568;13.266;2022-09-01T05:18:38;13.03;;;2.70;;
4424;SDS011;2225;53.568;13.266;2022-09-01T05:21:15;5.43;;;2.30;;
4424;SDS011;2225;53.568;13.266;2022-09-01T05:23:47;11.50;;;2.90;;
4424;SDS011;2225;53.568;13.266;2022-09-01T05:26:18;6.80;;;3.17;;
4424;SDS011;2225;53.568;13.266;2022-09-01T05:28:52;5.93;;;2.90;;
4424;SDS011;2225;53.568;13.266;2022-09-01T05:31:22;7.00;;;2.77;;
4424;SDS011;2225;53.568;13.266;2022-09-01T05:33:53;12.07;;;3.17;;
4424;SDS011;2225;53.568;13.266;2022-09-01T05:36:23;12.83;;;3.33;;
4424;SDS011;2225;53.568;13.266;2022-09-01T05:38:53;11.17;;;3.40;;
4424;SDS011;2225;53.568;13.266;2022-09-01T05:41:22;9.00;;;2.93;;
4424;SDS011;2225;53.568;13.266;2022-09-01T05:43:50;7.50;;;3.00;;
4424;SDS011;2225;53.568;13.266;2022-09-01T05:46:25;12.80;;;3.00;;
4424;SDS011;2225;53.568;13.266;2022-09-01T05:48:54;7.63;;;3.37;;
4424;SDS011;2225;53.568;13.266;2022-09-01T05:51:23;12.13;;;3.50;;
4424;SDS011;2225;53.568;13.266;2022-09-01T05:54:10;10.03;;;3.50;;
4424;SDS011;2225;53.568;13.266;2022-09-01T05:56:37;7.43;;;3.10;;
4424;SDS011;2225;53.568;13.266;2022-09-01T05:59:10;7.60;;;3.57;;
4424;SDS011;2225;53.568;13.266;2022-09-01T06:02:01;11.83;;;3.63;;
4424;SDS011;2225;53.568;13.266;2022-09-01T06:04:29;12.00;;;3.87;;
4424;SDS011;2225;53.568;13.266;2022-09-01T06:07:01;6.83;;;3.10;;
4424;SDS011;2225;53.568;13.266;2022-09-01T06:09:40;7.13;;;3.27;;
4424;SDS011;2225;53.568;13.266;2022-09-01T06:12:10;7.97;;;3.20;;
4424;SDS011;2225;53.568;13.266;2022-09-01T06:14:48;6.17;;;2.80;;
4424;SDS011;2225;53.568;13.266;2022-09-01T06:17:19;8.83;;;3.20;;
4424;SDS011;2225;53.568;13.266;2022-09-01T06:19:56;13.80;;;3.40;;
4424;SDS011;2225;53.568;13.266;2022-09-01T06:22:25;15.20;;;3.27;;
4424;SDS011;2225;53.568;13.266;2022-09-01T06:24:54;8.67;;;2.80;;
4424;SDS011;2225;53.568;13.266;2022-09-01T06:27:31;7.30;;;2.50;;
4424;SDS011;2225;53.568;13.266;2022-09-01T06:29:59;9.87;;;2.97;;
4424;SDS011;2225;53.568;13.266;2022-09-01T06:32:29;13.27;;;3.07;;
4424;SDS011;2225;53.568;13.266;2022-09-01T06:34:58;12.50;;;3.03;;
4424;SDS011;2225;53.568;13.266;2022-09-01T06:37:25;8.80;;;2.80;;
4424;SDS011;2225;53.568;13.266;2022-09-01T06:39:59;21.30;;;2.90;;
4424;SDS011;2225;53.568;13.266;2022-09-01T06:42:28;12.10;;;3.33;;
4424;SDS011;2225;53.568;13.266;2022-09-01T06:44:59;11.73;;;3.23;;
4424;SDS011;2225;53.568;13.266;2022-09-01T06:47:27;11.53;;;2.83;;
4424;SDS011;2225;53.568;13.266;2022-09-01T06:49:54;9.50;;;2.70;;
4424;SDS011;2225;53.568;13.266;2022-09-01T06:52:25;11.73;;;2.87;;
4424;SDS011;2225;53.568;13.266;2022-09-01T06:54:53;6.83;;;2.70;;
4424;SDS011;2225;53.568;13.266;2022-09-01T06:57:23;10.47;;;2.70;;
4424;SDS011;2225;53.568;13.266;2022-09-01T07:00:14;6.80;;;2.40;;
4424;SDS011;2225;53.568;13.266;2022-09-01T07:02:47;11.23;;;3.57;;
4424;SDS011;2225;53.568;13.266;2022-09-01T07:05:41;7.13;;;3.00;;
4424;SDS011;2225;53.568;13.266;2022-09-01T07:08:51;7.40;;;2.33;;
4424;SDS011;2225;53.568;13.266;2022-09-01T07:12:04;9.13;;;2.80;;
4424;SDS011;2225;53.568;13.266;2022-09-01T07:14:50;9.53;;;3.30;;
4424;SDS011;2225;53.568;13.266;2022-09-01T07:17:38;15.03;;;3.10;;
4424;SDS011;2225;53.568;13.266;2022-09-01T07:20:08;7.50;;;2.80;;
4424;SDS011;2225;53.568;13.266;2022-09-01T07:22:55;12.53;;;3.27;;
4424;SDS011;2225;53.568;13.266;2022-09-01T07:25:34;5.90;;;2.70;;
4424;SDS011;2225;53.568;13.266;2022-09-01T07:28:32;12.90;;;2.60;;
4424;SDS011;2225;53.568;13.266;2022-09-01T07:31:02;12.70;;;2.73;;
4424;SDS011;2225;53.568;13.266;2022-09-01T07:33:52;5.97;;;2.30;;
4424;SDS011;2225;53.568;13.266;2022-09-01T07:36:44;7.20;;;2.17;;
4424;SDS011;2225;53.568;13.266;2022-09-01T07:39:33;8.50;;;2.80;;
4424;SDS011;2225;53.568;13.266;2022-09-01T07:42:32;5.23;;;1.70;;
4424;SDS011;2225;53.568;13.266;2022-09-01T07:45:38;7.17;;;2.53;;
4424;SDS011;2225;53.568;13.266;2022-09-01T07:48:25;6.47;;;2.50;;
4424;SDS011;2225;53.568;13.266;2022-09-01T07:51:14;5.93;;;2.43;;
4424;SDS011;2225;53.568;13.266;2022-09-01T07:54:03;6.77;;;2.40;;
4424;SDS011;2225;53.568;13.266;2022-09-01T07:56:32;7.50;;;1.90;;
4424;SDS011;2225;53.568;13.266;2022-09-01T07:59:06;6.27;;;2.17;;
4424;SDS011;2225;53.568;13.266;2022-09-01T08:01:48;4.73;;;1.70;;
4424;SDS011;2225;53.568;13.266;2022-09-01T08:04:16;5.40;;;1.70;;
4424;SDS011;2225;53.568;13.266;2022-09-01T08:06:48;7.70;;;2.20;;
4424;SDS011;2225;53.568;13.266;2022-09-01T08:09:15;5.10;;;1.53;;
4424;SDS011;2225;53.568;13.266;2022-09-01T08:12:03;13.03;;;1.60;;
4424;SDS011;2225;53.568;13.266;2022-09-01T08:14:37;6.07;;;1.90;;
4424;SDS011;2225;53.568;13.266;2022-09-01T08:17:05;7.53;;;1.73;;
4424;SDS011;2225;53.568;13.266;2022-09-01T08:19:54;4.43;;;1.50;;
4424;SDS011;2225;53.568;13.266;2022-09-01T08:22:41;5.30;;;1.90;;
4424;SDS011;2225;53.568;13.266;2022-09-01T08:25:27;4.80;;;1.60;;
4424;SDS011;2225;53.568;13.266;2022-09-01T08:27:54;6.30;;;1.80;;
4424;SDS011;2225;53.568;13.266;2022-09-01T08:30:25;5.77;;;1.90;;
4424;SDS011;2225;53.568;13.266;2022-09-01T08:32:53;5.73;;;1.73;;
4424;SDS011;2225;53.568;13.266;2022-09-01T08:35:21;5.20;;;1.70;;
4424;SDS011;2225;53.568;13.266;2022-09-01T08:37:50;4.47;;;1.60;;
4424;SDS011;2225;53.568;13.266;2022-09-01T08:40:18;3.73;;;1.37;;
4424;SDS011;2225;53.568;13.266;2022-09-01T08:43:11;7.53;;;2.17;;
4424;SDS011;2225;53.568;13.266;2022-09-01T08:48:54;9.40;;;2.40;;
4424;SDS011;2225;53.568;13.266;2022-09-01T08:52:23;10.20;;;2.20;;
4424;SDS011;2225;53.568;13.266;2022-09-01T08:55:06;12.83;;;2.33;;
4424;SDS011;2225;53.568;13.266;2022-09-01T08:57:42;4.63;;;1.87;;
4424;SDS011;2225;53.568;13.266;2022-09-01T09:00:18;7.20;;;1.60;;
4424;SDS011;2225;53.568;13.266;2022-09-01T09:03:00;3.83;;;1.20;;
4424;SDS011;2225;53.568;13.266;2022-09-01T09:14:46;5.00;;;1.50;;
4424;SDS011;2225;53.568;13.266;2022-09-01T09:17:22;5.40;;;1.60;;
4424;SDS011;2225;53.568;13.266;2022-09-01T09:19:55;5.47;;;0.97;;
4424;SDS011;2225;53.568;13.266;2022-09-01T09:22:22;5.60;;;1.50;;
4424;SDS011;2225;53.568;13.266;2022-09-01T09:27:31;4.57;;;1.17;;
4424;SDS011;2225;53.568;13.266;2022-09-01T09:30:21;4.20;;;1.23;;
4424;SDS011;2225;53.568;13.266;2022-09-01T09:32:58;7.63;;;1.40;;
4424;SDS011;2225;53.568;13.266;2022-09-01T09:35:51;4.20;;;1.17;;
4424;SDS011;2225;53.568;13.266;2022-09-01T09:38:22;3.97;;;1.17;;
4424;SDS011;2225;53.568;13.266;2022-09-01T09:40:55;5.43;;;1.23;;
4424;SDS011;2225;53.568;13.266;2022-09-01T09:43:53;7.10;;;2.23;;
4424;SDS011;2225;53.568;13.266;2022-09-01T09:46:34;6.63;;;1.40;;
4424;SDS011;2225;53.568;13.266;2022-09-01T09:49:14;5.10;;;2.10;;
4424;SDS011;2225;53.568;13.266;2022-09-01T09:54:39;3.63;;;1.07;;
4424;SDS011;2225;53.568;13.266;2022-09-01T09:57:25;5.00;;;1.00;;
4424;SDS011;2225;53.568;13.266;2022-09-01T10:00:03;5.17;;;1.27;;
4424;SDS011;2225;53.568;13.266;2022-09-01T10:02:42;3.47;;;1.00;;
4424;SDS011;2225;53.568;13.266;2022-09-01T10:07:53;6.13;;;1.50;;
4424;SDS011;2225;53.568;13.266;2022-09-01T10:10:38;3.30;;;1.10;;
4424;SDS011;2225;53.568;13.266;2022-09-01T10:13:24;10.93;;;1.50;;
4424;SDS011;2225;53.568;13.266;2022-09-01T10:16:02;13.67;;;1.70;;
4424;SDS011;2225;53.568;13.266;2022-09-01T10:18:37;6.87;;;1.40;;
4424;SDS011;2225;53.568;13.266;2022-09-01T10:21:09;4.87;;;1.23;;
4424;SDS011;2225;53.568;13.266;2022-09-01T10:23:41;6.00;;;1.67;;
4424;SDS011;2225;53.568;13.266;2022-09-01T10:26:12;7.13;;;1.30;;
4424;SDS011;2225;53.568;13.266;2022-09-01T10:29:00;7.53;;;1.20;;
4424;SDS011;2225;53.568;13.266;2022-09-01T10:31:41;5.87;;;1.30;;
4424;SDS011;2225;53.568;13.266;2022-09-01T10:34:10;4.30;;;1.27;;
4424;SDS011;2225;53.568;13.266;2022-09-01T10:36:45;6.53;;;1.60;;
4424;SDS011;2225;53.568;13.266;2022-09-01T10:39:22;3.93;;;0.93;;
4424;SDS011;2225;53.568;13.266;2022-09-01T10:41:56;11.63;;;1.40;;
4424;SDS011;2225;53.568;13.266;2022-09-01T10:44:33;4.13;;;1.20;;
4424;SDS011;2225;53.568;13.266;2022-09-01T10:47:24;3.97;;;1.30;;
4424;SDS011;2225;53.568;13.266;2022-09-01T10:50:00;4.40;;;1.23;;
4424;SDS011;2225;53.568;13.266;2022-09-01T10:58:07;4.10;;;1.20;;
4424;SDS011;2225;53.568;13.266;2022-09-01T11:04:15;3.50;;;0.97;;
4424;SDS011;2225;53.568;13.266;2022-09-01T11:06:59;3.53;;;0.80;;
4424;SDS011;2225;53.568;13.266;2022-09-01T11:09:40;3.70;;;0.80;;
4424;SDS011;2225;53.568;13.266;2022-09-01T11:20:28;4.00;;;1.10;;
4424;SDS011;2225;53.568;13.266;2022-09-01T11:23:04;9.30;;;0.60;;
4424;SDS011;2225;53.568;13.266;2022-09-01T11:26:43;3.00;;;0.80;;
4424;SDS011;2225;53.568;13.266;2022-09-01T11:28:57;5.23;;;1.03;;
4424;SDS011;2225;53.568;13.266;2022-09-01T11:31:28;3.40;;;0.80;;
4424;SDS011;2225;53.568;13.266;2022-09-01T11:34:02;5.10;;;1.40;;
4424;SDS011;2225;53.568;13.266;2022-09-01T11:41:57;4.50;;;1.40;;
4424;SDS011;2225;53.568;13.266;2022-09-01T11:44:47;5.10;;;1.30;;
4424;SDS011;2225;53.568;13.266;2022-09-01T11:47:28;3.90;;;1.00;;
4424;SDS011;2225;53.568;13.266;2022-09-01T11:50:05;6.07;;;1.50;;
4424;SDS011;2225;53.568;13.266;2022-09-01T11:52:51;7.30;;;1.70;;
4424;SDS011;2225;53.568;13.266;2022-09-01T11:55:31;6.83;;;1.33;;
4424;SDS011;2225;53.568;13.266;2022-09-01T11:58:11;4.90;;;1.43;;
4424;SDS011;2225;53.568;13.266;2022-09-01T12:00:54;6.50;;;1.10;;
4424;SDS011;2225;53.568;13.266;2022-09-01T12:03:26;4.70;;;1.07;;
4424;SDS011;2225;53.568;13.266;2022-09-01T12:08:27;3.33;;;0.97;;
4424;SDS011;2225;53.568;13.266;2022-09-01T12:11:06;3.83;;;1.00;;
4424;SDS011;2225;53.568;13.266;2022-09-01T12:14:01;3.50;;;1.03;;
4424;SDS011;2225;53.568;13.266;2022-09-01T12:16:37;4.40;;;1.13;;
4424;SDS011;2225;53.568;13.266;2022-09-01T12:19:07;4.13;;;1.10;;
4424;SDS011;2225;53.568;13.266;2022-09-01T12:24:34;3.30;;;0.90;;
4424;SDS011;2225;53.568;13.266;2022-09-01T12:27:02;6.03;;;0.80;;
4424;SDS011;2225;53.568;13.266;2022-09-01T12:29:30;3.50;;;0.90;;
4424;SDS011;2225;53.568;13.266;2022-09-01T12:31:58;3.57;;;0.87;;
4424;SDS011;2225;53.568;13.266;2022-09-01T12:37:34;6.30;;;1.20;;
4424;SDS011;2225;53.568;13.266;2022-09-01T12:40:02;3.17;;;1.03;;
4424;SDS011;2225;53.568;13.266;2022-09-01T12:42:30;6.97;;;1.33;;
4424;SDS011;2225;53.568;13.266;2022-09-01T12:45:07;4.00;;;1.10;;
4424;SDS011;2225;53.568;13.266;2022-09-01T12:50:07;5.33;;;1.07;;
4424;SDS011;2225;53.568;13.266;2022-09-01T12:52:46;3.00;;;0.70;;
4424;SDS011;2225;53.568;13.266;2022-09-01T12:55:22;3.20;;;0.90;;
4424;SDS011;2225;53.568;13.266;2022-09-01T12:58:18;3.33;;;1.00;;
4424;SDS011;2225;53.568;13.266;2022-09-01T13:01:04;4.37;;;0.73;;
4424;SDS011;2225;53.568;13.266;2022-09-01T13:03:41;4.13;;;0.97;;
4424;SDS011;2225;53.568;13.266;2022-09-01T13:06:35;4.03;;;1.07;;
4424;SDS011;2225;53.568;13.266;2022-09-01T13:09:03;4.83;;;1.13;;
4424;SDS011;2225;53.568;13.266;2022-09-01T13:11:30;3.70;;;1.07;;
4424;SDS011;2225;53.568;13.266;2022-09-01T13:14:17;3.57;;;1.00;;
4424;SDS011;2225;53.568;13.266;2022-09-01T13:16:44;8.10;;;1.30;;
4424;SDS011;2225;53.568;13.266;2022-09-01T13:19:11;4.83;;;1.00;;
4424;SDS011;2225;53.568;13.266;2022-09-01T13:21:47;3.57;;;1.00;;
4424;SDS011;2225;53.568;13.266;2022-09-01T13:24:14;3.67;;;0.90;;
4424;SDS011;2225;53.568;13.266;2022-09-01T13:26:41;7.83;;;1.10;;
4424;SDS011;2225;53.568;13.266;2022-09-01T13:29:28;4.07;;;1.23;;
4424;SDS011;2225;53.568;13.266;2022-09-01T13:31:55;4.47;;;1.10;;
4424;SDS011;2225;53.568;13.266;2022-09-01T13:34:42;3.70;;;1.00;;
4424;SDS011;2225;53.568;13.266;2022-09-01T13:37:09;3.57;;;1.00;;
4424;SDS011;2225;53.568;13.266;2022-09-01T13:39:36;8.43;;;1.23;;
4424;SDS011;2225;53.568;13.266;2022-09-01T13:42:03;3.87;;;1.27;;
4424;SDS011;2225;53.568;13.266;2022-09-01T13:44:30;3.73;;;0.80;;
4424;SDS011;2225;53.568;13.266;2022-09-01T13:46:57;4.30;;;0.90;;
4424;SDS011;2225;53.568;13.266;2022-09-01T13:49:24;3.33;;;1.00;;
4424;SDS011;2225;53.568;13.266;2022-09-01T13:52:11;3.50;;;1.10;;
4424;SDS011;2225;53.568;13.266;2022-09-01T13:54:38;3.63;;;0.93;;
4424;SDS011;2225;53.568;13.266;2022-09-01T13:57:05;5.07;;;1.07;;
4424;SDS011;2225;53.568;13.266;2022-09-01T13:59:32;3.20;;;0.90;;
4424;SDS011;2225;53.568;13.266;2022-09-01T14:01:59;5.50;;;1.03;;
4424;SDS011;2225;53.568;13.266;2022-09-01T14:04:27;3.97;;;1.07;;
4424;SDS011;2225;53.568;13.266;2022-09-01T14:06:54;4.50;;;1.00;;
4424;SDS011;2225;53.568;13.266;2022-09-01T14:09:21;7.70;;;1.27;;
4424;SDS011;2225;53.568;13.266;2022-09-01T14:11:51;3.83;;;0.90;;
4424;SDS011;2225;53.568;13.266;2022-09-01T14:14:19;3.23;;;0.70;;
4424;SDS011;2225;53.568;13.266;2022-09-01T14:16:47;4.50;;;0.80;;
4424;SDS011;2225;53.568;13.266;2022-09-01T14:19:14;4.47;;;0.90;;
4424;SDS011;2225;53.568;13.266;2022-09-01T14:21:41;4.13;;;1.10;;
4424;SDS011;2225;53.568;13.266;2022-09-01T14:24:10;4.80;;;1.10;;
4424;SDS011;2225;53.568;13.266;2022-09-01T14:26:39;4.30;;;1.07;;
4424;SDS011;2225;53.568;13.266;2022-09-01T14:29:07;7.00;;;1.17;;
4424;SDS011;2225;53.568;13.266;2022-09-01T14:31:34;3.57;;;1.03;;
4424;SDS011;2225;53.568;13.266;2022-09-01T14:34:03;3.30;;;0.90;;
4424;SDS011;2225;53.568;13.266;2022-09-01T14:36:31;4.63;;;1.10;;
4424;SDS011;2225;53.568;13.266;2022-09-01T14:38:58;4.50;;;1.10;;
4424;SDS011;2225;53.568;13.266;2022-09-01T14:41:25;4.43;;;1.03;;
4424;SDS011;2225;53.568;13.266;2022-09-01T14:43:53;3.97;;;1.00;;
4424;SDS011;2225;53.568;13.266;2022-09-01T14:46:28;3.50;;;0.90;;
4424;SDS011;2225;53.568;13.266;2022-09-01T14:48:59;10.27;;;1.23;;
4424;SDS011;2225;53.568;13.266;2022-09-01T14:51:28;4.23;;;1.00;;
4424;SDS011;2225;53.568;13.266;2022-09-01T14:54:16;5.33;;;1.20;;
4424;SDS011;2225;53.568;13.266;2022-09-01T14:56:43;2.80;;;0.77;;
4424;SDS011;2225;53.568;13.266;2022-09-01T14:59:31;5.47;;;1.03;;
4424;SDS011;2225;53.568;13.266;2022-09-01T15:01:58;4.00;;;0.90;;
4424;SDS011;2225;53.568;13.266;2022-09-01T15:04:25;4.00;;;0.70;;
4424;SDS011;2225;53.568;13.266;2022-09-01T15:06:53;3.93;;;0.80;;
4424;SDS011;2225;53.568;13.266;2022-09-01T15:09:21;4.70;;;0.97;;
4424;SDS011;2225;53.568;13.266;2022-09-01T15:11:48;4.20;;;0.90;;
4424;SDS011;2225;53.568;13.266;2022-09-01T15:14:15;4.17;;;1.13;;
4424;SDS011;2225;53.568;13.266;2022-09-01T15:16:42;4.60;;;0.97;;
4424;SDS011;2225;53.568;13.266;2022-09-01T15:19:10;3.13;;;0.80;;
4424;SDS011;2225;53.568;13.266;2022-09-01T15:21:39;4.40;;;1.13;;
4424;SDS011;2225;53.568;13.266;2022-09-01T15:24:08;6.00;;;1.30;;
4424;SDS011;2225;53.568;13.266;2022-09-01T15:26:36;5.37;;;1.10;;
4424;SDS011;2225;53.568;13.266;2022-09-01T15:29:06;8.60;;;1.00;;
4424;SDS011;2225;53.568;13.266;2022-09-01T15:31:38;4.00;;;0.97;;
4424;SDS011;2225;53.568;13.266;2022-09-01T15:34:05;4.87;;;0.90;;
4424;SDS011;2225;53.568;13.266;2022-09-01T15:36:36;3.67;;;1.00;;
4424;SDS011;2225;53.568;13.266;2022-09-01T15:39:05;4.33;;;1.00;;
4424;SDS011;2225;53.568;13.266;2022-09-01T15:41:34;5.20;;;1.00;;
4424;SDS011;2225;53.568;13.266;2022-09-01T15:44:02;5.30;;;1.10;;
4424;SDS011;2225;53.568;13.266;2022-09-01T15:46:32;4.70;;;1.10;;
4424;SDS011;2225;53.568;13.266;2022-09-01T15:49:02;5.80;;;0.97;;
4424;SDS011;2225;53.568;13.266;2022-09-01T15:51:39;4.40;;;1.00;;
4424;SDS011;2225;53.568;13.266;2022-09-01T15:54:09;4.40;;;0.93;;
4424;SDS011;2225;53.568;13.266;2022-09-01T15:56:42;2.97;;;0.77;;
4424;SDS011;2225;53.568;13.266;2022-09-01T15:59:11;3.63;;;0.80;;
4424;SDS011;2225;53.568;13.266;2022-09-01T16:01:41;3.87;;;0.93;;
4424;SDS011;2225;53.568;13.266;2022-09-01T16:04:11;4.43;;;1.07;;
4424;SDS011;2225;53.568;13.266;2022-09-01T16:06:46;4.60;;;0.93;;
4424;SDS011;2225;53.568;13.266;2022-09-01T16:09:14;4.20;;;1.20;;
4424;SDS011;2225;53.568;13.266;2022-09-01T16:11:43;3.50;;;1.00;;
4424;SDS011;2225;53.568;13.266;2022-09-01T16:14:10;4.33;;;1.23;;
4424;SDS011;2225;53.568;13.266;2022-09-01T16:17:00;3.60;;;0.90;;
4424;SDS011;2225;53.568;13.266;2022-09-01T16:22:47;5.30;;;1.10;;
4424;SDS011;2225;53.568;13.266;2022-09-01T16:25:26;6.03;;;1.10;;
4424;SDS011;2225;53.568;13.266;2022-09-01T16:27:57;3.40;;;0.90;;
4424;SDS011;2225;53.568;13.266;2022-09-01T16:30:36;10.93;;;1.33;;
4424;SDS011;2225;53.568;13.266;2022-09-01T16:33:04;3.43;;;0.83;;
4424;SDS011;2225;53.568;13.266;2022-09-01T16:38:49;4.50;;;1.30;;
4424;SDS011;2225;53.568;13.266;2022-09-01T16:47:46;4.83;;;1.00;;
4424;SDS011;2225;53.568;13.266;2022-09-01T16:55:57;3.83;;;0.90;;
4424;SDS011;2225;53.568;13.266;2022-09-01T17:01:18;4.10;;;1.10;;
4424;SDS011;2225;53.568;13.266;2022-09-01T17:12:50;4.93;;;1.13;;
4424;SDS011;2225;53.568;13.266;2022-09-01T17:15:32;3.70;;;0.90;;